sensor_id;sensor_type;location;lat;lon;timestamp;temperature;humidity
41644;DHT22;44236;48.098;11.582;2023-01-08T00:00:48;20.10;44.30
41644;DHT22;44236;48.098;11.582;2023-01-08T00:03:14;20.10;44.20
41644;DHT22;44236;48.098;11.582;2023-01-08T00:05:40;20.10;44.20
41644;DHT22;44236;48.098;11.582;2023-01-08T00:08:06;20.10;44.20
41644;DHT22;44236;48.098;11.582;2023-01-08T00:10:34;20.10;44.00
41644;DHT22;44236;48.098;11.582;2023-01-08T00:12:59;20.10;44.10
41644;DHT22;44236;48.098;11.582;2023-01-08T00:15:25;20.10;44.20
41644;DHT22;44236;48.098;11.582;2023-01-08T00:17:50;20.10;44.00
41644;DHT22;44236;48.098;11.582;2023-01-08T00:20:16;20.10;44.00
41644;DHT22;44236;48.098;11.582;2023-01-08T00:22:42;20.10;43.80
41644;DHT22;44236;48.098;11.582;2023-01-08T00:25:07;20.10;44.00
41644;DHT22;44236;48.098;11.582;2023-01-08T00:27:33;20.10;43.90
41644;DHT22;44236;48.098;11.582;2023-01-08T00:29:59;20.00;44.00
41644;DHT22;44236;48.098;11.582;2023-01-08T00:32:24;20.00;43.90
41644;DHT22;44236;48.098;11.582;2023-01-08T00:34:50;20.10;44.00
41644;DHT22;44236;48.098;11.582;2023-01-08T00:37:15;20.10;43.80
41644;DHT22;44236;48.098;11.582;2023-01-08T00:39:44;20.00;43.50
41644;DHT22;44236;48.098;11.582;2023-01-08T00:42:10;20.00;43.50
41644;DHT22;44236;48.098;11.582;2023-01-08T00:44:36;20.00;43.70
41644;DHT22;44236;48.098;11.582;2023-01-08T00:47:02;20.00;43.50
41644;DHT22;44236;48.098;11.582;2023-01-08T00:49:28;20.00;43.80
41644;DHT22;44236;48.098;11.582;2023-01-08T00:51:54;20.00;43.90
41644;DHT22;44236;48.098;11.582;2023-01-08T00:54:19;20.00;43.80
41644;DHT22;44236;48.098;11.582;2023-01-08T00:56:45;20.00;44.50
41644;DHT22;44236;48.098;11.582;2023-01-08T00:59:11;20.00;44.00
41644;DHT22;44236;48.098;11.582;2023-01-08T01:01:37;19.90;43.80
41644;DHT22;44236;48.098;11.582;2023-01-08T01:04:02;20.00;43.80
41644;DHT22;44236;48.098;11.582;2023-01-08T01:06:28;19.90;43.60
41644;DHT22;44236;48.098;11.582;2023-01-08T01:08:54;19.90;43.80
41644;DHT22;44236;48.098;11.582;2023-01-08T01:11:26;19.90;43.80
41644;DHT22;44236;48.098;11.582;2023-01-08T01:13:53;19.90;43.80
41644;DHT22;44236;48.098;11.582;2023-01-08T01:16:19;19.90;43.90
41644;DHT22;44236;48.098;11.582;2023-01-08T01:18:45;19.90;44.00
41644;DHT22;44236;48.098;11.582;2023-01-08T01:21:12;19.90;44.10
41644;DHT22;44236;48.098;11.582;2023-01-08T01:23:41;19.90;44.00
41644;DHT22;44236;48.098;11.582;2023-01-08T01:26:17;19.90;44.20
41644;DHT22;44236;48.098;11.582;2023-01-08T01:28:46;19.90;44.30
41644;DHT22;44236;48.098;11.582;2023-01-08T01:31:12;19.80;44.20
41644;DHT22;44236;48.098;11.582;2023-01-08T01:33:41;19.80;44.20
41644;DHT22;44236;48.098;11.582;2023-01-08T01:36:07;19.80;44.20
41644;DHT22;44236;48.098;11.582;2023-01-08T01:38:33;19.80;44.60
41644;DHT22;44236;48.098;11.582;2023-01-08T01:40:59;19.80;44.20
41644;DHT22;44236;48.098;11.582;2023-01-08T01:43:40;19.80;44.30
41644;DHT22;44236;48.098;11.582;2023-01-08T01:48:59;19.80;44.40
41644;DHT22;44236;48.098;11.582;2023-01-08T01:51:29;19.80;44.20
41644;DHT22;44236;48.098;11.582;2023-01-08T01:53:56;19.80;44.10
41644;DHT22;44236;48.098;11.582;2023-01-08T01:56:22;19.80;44.20
41644;DHT22;44236;48.098;11.582;2023-01-08T01:58:48;19.80;44.30
41644;DHT22;44236;48.098;11.582;2023-01-08T02:01:14;19.80;44.20
41644;DHT22;44236;48.098;11.582;2023-01-08T02:03:39;19.80;44.40
41644;DHT22;44236;48.098;11.582;2023-01-08T02:09:47;19.80;44.20
41644;DHT22;44236;48.098;11.582;2023-01-08T02:17:52;19.80;44.20
41644;DHT22;44236;48.098;11.582;2023-01-08T02:22:47;19.80;44.20
41644;DHT22;44236;48.098;11.582;2023-01-08T02:28:13;19.80;44.20
41644;DHT22;44236;48.098;11.582;2023-01-08T02:30:42;19.80;44.20
41644;DHT22;44236;48.098;11.582;2023-01-08T02:33:08;19.80;44.30
41644;DHT22;44236;48.098;11.582;2023-01-08T02:35:40;19.80;44.50
41644;DHT22;44236;48.098;11.582;2023-01-08T02:38:11;19.80;44.30
41644;DHT22;44236;48.098;11.582;2023-01-08T02:41:02;19.80;44.20
41644;DHT22;44236;48.098;11.582;2023-01-08T02:46:01;19.80;44.20
41644;DHT22;44236;48.098;11.582;2023-01-08T02:48:35;19.80;44.20
41644;DHT22;44236;48.098;11.582;2023-01-08T02:51:11;19.80;44.30
41644;DHT22;44236;48.098;11.582;2023-01-08T02:53:50;19.70;44.20
41644;DHT22;44236;48.098;11.582;2023-01-08T02:56:23;19.70;44.20
41644;DHT22;44236;48.098;11.582;2023-01-08T02:58:52;19.70;44.30
41644;DHT22;44236;48.098;11.582;2023-01-08T03:01:19;19.70;44.20
41644;DHT22;44236;48.098;11.582;2023-01-08T03:03:51;19.70;44.20
41644;DHT22;44236;48.098;11.582;2023-01-08T03:06:19;19.70;44.20
41644;DHT22;44236;48.098;11.582;2023-01-08T03:08:47;19.70;44.20
41644;DHT22;44236;48.098;11.582;2023-01-08T03:11:16;19.70;44.20
41644;DHT22;44236;48.098;11.582;2023-01-08T03:14:12;19.70;43.90
41644;DHT22;44236;48.098;11.582;2023-01-08T03:17:17;19.70;44.00
41644;DHT22;44236;48.098;11.582;2023-01-08T03:20:16;19.70;43.70
41644;DHT22;44236;48.098;11.582;2023-01-08T03:22:41;19.70;43.90
41644;DHT22;44236;48.098;11.582;2023-01-08T03:25:09;19.70;43.80
41644;DHT22;44236;48.098;11.582;2023-01-08T03:27:44;19.70;44.00
41644;DHT22;44236;48.098;11.582;2023-01-08T03:30:13;19.70;43.90
41644;DHT22;44236;48.098;11.582;2023-01-08T03:32:41;19.70;43.80
41644;DHT22;44236;48.098;11.582;2023-01-08T03:35:09;19.70;43.70
41644;DHT22;44236;48.098;11.582;2023-01-08T03:37:39;19.70;43.80
41644;DHT22;44236;48.098;11.582;2023-01-08T03:40:28;19.70;43.80
41644;DHT22;44236;48.098;11.582;2023-01-08T03:42:55;19.70;43.90
41644;DHT22;44236;48.098;11.582;2023-01-08T03:45:23;19.70;43.90
41644;DHT22;44236;48.098;11.582;2023-01-08T03:47:50;19.60;43.80
41644;DHT22;44236;48.098;11.582;2023-01-08T03:50:22;19.70;43.30
41644;DHT22;44236;48.098;11.582;2023-01-08T03:52:49;19.60;43.70
41644;DHT22;44236;48.098;11.582;2023-01-08T03:55:15;19.60;43.50
41644;DHT22;44236;48.098;11.582;2023-01-08T03:57:40;19.60;43.80
41644;DHT22;44236;48.098;11.582;2023-01-08T04:00:06;19.60;43.80
41644;DHT22;44236;48.098;11.582;2023-01-08T04:02:32;19.60;43.60
41644;DHT22;44236;48.098;11.582;2023-01-08T04:04:58;19.60;43.40
41644;DHT22;44236;48.098;11.582;2023-01-08T04:07:23;19.60;43.80
41644;DHT22;44236;48.098;11.582;2023-01-08T04:09:49;19.60;43.60
41644;DHT22;44236;48.098;11.582;2023-01-08T04:12:15;19.60;44.20
41644;DHT22;44236;48.098;11.582;2023-01-08T04:14:40;19.60;43.70
41644;DHT22;44236;48.098;11.582;2023-01-08T04:17:06;19.60;43.70
41644;DHT22;44236;48.098;11.582;2023-01-08T04:19:32;19.60;43.70
41644;DHT22;44236;48.098;11.582;2023-01-08T04:21:57;19.60;43.70
41644;DHT22;44236;48.098;11.582;2023-01-08T04:24:23;19.60;43.60
41644;DHT22;44236;48.098;11.582;2023-01-08T04:26:49;19.60;43.80
41644;DHT22;44236;48.098;11.582;2023-01-08T04:29:14;19.60;43.70
41644;DHT22;44236;48.098;11.582;2023-01-08T04:31:40;19.60;43.70
41644;DHT22;44236;48.098;11.582;2023-01-08T04:34:06;19.60;43.50
41644;DHT22;44236;48.098;11.582;2023-01-08T04:36:31;19.60;43.70
41644;DHT22;44236;48.098;11.582;2023-01-08T04:38:57;19.50;43.70
41644;DHT22;44236;48.098;11.582;2023-01-08T04:41:23;19.50;43.30
41644;DHT22;44236;48.098;11.582;2023-01-08T04:43:48;19.60;43.50
41644;DHT22;44236;48.098;11.582;2023-01-08T04:46:14;19.60;43.10
41644;DHT22;44236;48.098;11.582;2023-01-08T04:48:39;19.60;43.50
41644;DHT22;44236;48.098;11.582;2023-01-08T04:51:05;19.50;43.30
41644;DHT22;44236;48.098;11.582;2023-01-08T04:53:34;19.60;43.00
41644;DHT22;44236;48.098;11.582;2023-01-08T04:56:05;19.60;43.00
41644;DHT22;44236;48.098;11.582;2023-01-08T04:58:32;19.50;43.10
41644;DHT22;44236;48.098;11.582;2023-01-08T05:00:58;19.50;43.10
41644;DHT22;44236;48.098;11.582;2023-01-08T05:03:24;19.50;42.70
41644;DHT22;44236;48.098;11.582;2023-01-08T05:05:49;19.50;43.40
41644;DHT22;44236;48.098;11.582;2023-01-08T05:08:15;19.50;43.00
41644;DHT22;44236;48.098;11.582;2023-01-08T05:10:41;19.50;42.90
41644;DHT22;44236;48.098;11.582;2023-01-08T05:13:06;19.50;43.20
41644;DHT22;44236;48.098;11.582;2023-01-08T05:15:32;19.50;43.20
41644;DHT22;44236;48.098;11.582;2023-01-08T05:18:03;19.50;43.20
41644;DHT22;44236;48.098;11.582;2023-01-08T05:20:30;19.50;43.00
41644;DHT22;44236;48.098;11.582;2023-01-08T05:22:56;19.50;43.10
41644;DHT22;44236;48.098;11.582;2023-01-08T05:25:23;19.50;42.80
41644;DHT22;44236;48.098;11.582;2023-01-08T05:27:49;19.50;43.10
41644;DHT22;44236;48.098;11.582;2023-01-08T05:30:15;19.50;42.90
41644;DHT22;44236;48.098;11.582;2023-01-08T05:32:40;19.50;43.10
41644;DHT22;44236;48.098;11.582;2023-01-08T05:35:07;19.50;43.10
41644;DHT22;44236;48.098;11.582;2023-01-08T05:37:34;19.50;43.20
41644;DHT22;44236;48.098;11.582;2023-01-08T05:40:00;19.50;43.70
41644;DHT22;44236;48.098;11.582;2023-01-08T05:42:25;19.50;43.30
41644;DHT22;44236;48.098;11.582;2023-01-08T05:44:51;19.50;43.30
41644;DHT22;44236;48.098;11.582;2023-01-08T05:47:16;19.50;43.10
41644;DHT22;44236;48.098;11.582;2023-01-08T05:49:42;19.40;43.20
41644;DHT22;44236;48.098;11.582;2023-01-08T05:52:08;19.50;43.00
41644;DHT22;44236;48.098;11.582;2023-01-08T05:54:33;19.40;42.80
41644;DHT22;44236;48.098;11.582;2023-01-08T05:56:59;19.50;42.80
41644;DHT22;44236;48.098;11.582;2023-01-08T05:59:24;19.40;42.70
41644;DHT22;44236;48.098;11.582;2023-01-08T06:01:50;19.40;42.10
41644;DHT22;44236;48.098;11.582;2023-01-08T06:04:16;19.40;42.80
41644;DHT22;44236;48.098;11.582;2023-01-08T06:06:41;19.40;43.00
41644;DHT22;44236;48.098;11.582;2023-01-08T06:09:07;19.40;43.10
41644;DHT22;44236;48.098;11.582;2023-01-08T06:11:33;19.40;43.20
41644;DHT22;44236;48.098;11.582;2023-01-08T06:13:59;19.40;43.00
41644;DHT22;44236;48.098;11.582;2023-01-08T06:16:25;19.40;43.20
41644;DHT22;44236;48.098;11.582;2023-01-08T06:18:50;19.40;43.10
41644;DHT22;44236;48.098;11.582;2023-01-08T06:21:16;19.40;43.20
41644;DHT22;44236;48.098;11.582;2023-01-08T06:23:42;19.40;43.20
41644;DHT22;44236;48.098;11.582;2023-01-08T06:26:07;19.40;43.00
41644;DHT22;44236;48.098;11.582;2023-01-08T06:28:34;19.40;43.10
41644;DHT22;44236;48.098;11.582;2023-01-08T06:31:00;19.40;43.00
41644;DHT22;44236;48.098;11.582;2023-01-08T06:33:26;19.40;43.30
41644;DHT22;44236;48.098;11.582;2023-01-08T06:35:52;19.40;43.20
41644;DHT22;44236;48.098;11.582;2023-01-08T06:38:18;19.40;43.00
41644;DHT22;44236;48.098;11.582;2023-01-08T06:40:44;19.40;43.00
41644;DHT22;44236;48.098;11.582;2023-01-08T06:43:10;19.40;43.10
41644;DHT22;44236;48.098;11.582;2023-01-08T06:45:36;19.40;42.40
41644;DHT22;44236;48.098;11.582;2023-01-08T06:48:05;19.40;43.00
41644;DHT22;44236;48.098;11.582;2023-01-08T06:50:32;19.40;43.10
41644;DHT22;44236;48.098;11.582;2023-01-08T06:52:58;19.40;42.70
41644;DHT22;44236;48.098;11.582;2023-01-08T06:55:24;19.30;42.30
41644;DHT22;44236;48.098;11.582;2023-01-08T06:57:57;19.30;42.60
41644;DHT22;44236;48.098;11.582;2023-01-08T07:00:23;19.30;42.50
41644;DHT22;44236;48.098;11.582;2023-01-08T07:02:51;19.40;42.50
41644;DHT22;44236;48.098;11.582;2023-01-08T07:05:17;19.40;43.00
41644;DHT22;44236;48.098;11.582;2023-01-08T07:07:42;19.40;43.00
41644;DHT22;44236;48.098;11.582;2023-01-08T07:10:08;19.40;42.30
41644;DHT22;44236;48.098;11.582;2023-01-08T07:12:34;19.40;42.80
41644;DHT22;44236;48.098;11.582;2023-01-08T07:15:00;19.40;42.90
41644;DHT22;44236;48.098;11.582;2023-01-08T07:17:26;19.40;42.60
41644;DHT22;44236;48.098;11.582;2023-01-08T07:19:52;19.50;42.80
41644;DHT22;44236;48.098;11.582;2023-01-08T07:22:17;19.50;42.80
41644;DHT22;44236;48.098;11.582;2023-01-08T07:24:44;19.50;42.50
41644;DHT22;44236;48.098;11.582;2023-01-08T07:27:10;19.50;42.70
41644;DHT22;44236;48.098;11.582;2023-01-08T07:29:35;19.50;42.80
41644;DHT22;44236;48.098;11.582;2023-01-08T07:32:01;19.50;42.70
41644;DHT22;44236;48.098;11.582;2023-01-08T07:34:27;19.60;42.60
41644;DHT22;44236;48.098;11.582;2023-01-08T07:36:53;19.50;42.80
41644;DHT22;44236;48.098;11.582;2023-01-08T07:39:18;19.50;43.00
41644;DHT22;44236;48.098;11.582;2023-01-08T07:41:44;19.60;42.90
41644;DHT22;44236;48.098;11.582;2023-01-08T07:44:10;19.60;42.70
41644;DHT22;44236;48.098;11.582;2023-01-08T07:46:36;19.50;42.80
41644;DHT22;44236;48.098;11.582;2023-01-08T07:49:01;19.50;42.80
41644;DHT22;44236;48.098;11.582;2023-01-08T07:51:27;19.60;42.90
41644;DHT22;44236;48.098;11.582;2023-01-08T07:53:54;19.50;42.90
41644;DHT22;44236;48.098;11.582;2023-01-08T07:56:21;19.50;43.00
41644;DHT22;44236;48.098;11.582;2023-01-08T07:58:47;19.50;43.20
41644;DHT22;44236;48.098;11.582;2023-01-08T08:01:13;19.50;43.10
41644;DHT22;44236;48.098;11.582;2023-01-08T08:03:40;19.50;43.10
41644;DHT22;44236;48.098;11.582;2023-01-08T08:06:07;19.50;43.10
41644;DHT22;44236;48.098;11.582;2023-01-08T08:08:33;19.50;43.10
41644;DHT22;44236;48.098;11.582;2023-01-08T08:10:59;19.50;43.10
41644;DHT22;44236;48.098;11.582;2023-01-08T08:13:25;19.50;43.20
41644;DHT22;44236;48.098;11.582;2023-01-08T08:15:50;19.50;43.40
41644;DHT22;44236;48.098;11.582;2023-01-08T08:18:16;19.50;43.30
41644;DHT22;44236;48.098;11.582;2023-01-08T08:20:42;19.50;43.50
41644;DHT22;44236;48.098;11.582;2023-01-08T08:23:12;19.50;43.40
41644;DHT22;44236;48.098;11.582;2023-01-08T08:25:39;19.50;43.30
41644;DHT22;44236;48.098;11.582;2023-01-08T08:28:05;19.50;43.30
41644;DHT22;44236;48.098;11.582;2023-01-08T08:30:33;19.50;43.20
41644;DHT22;44236;48.098;11.582;2023-01-08T08:33:01;19.40;43.20
41644;DHT22;44236;48.098;11.582;2023-01-08T08:35:28;19.50;43.40
41644;DHT22;44236;48.098;11.582;2023-01-08T08:37:54;19.40;43.30
41644;DHT22;44236;48.098;11.582;2023-01-08T08:40:20;19.50;43.60
41644;DHT22;44236;48.098;11.582;2023-01-08T08:42:46;19.40;43.40
41644;DHT22;44236;48.098;11.582;2023-01-08T08:45:12;19.40;43.70
41644;DHT22;44236;48.098;11.582;2023-01-08T08:47:37;19.40;43.70
41644;DHT22;44236;48.098;11.582;2023-01-08T08:50:05;19.50;43.70
41644;DHT22;44236;48.098;11.582;2023-01-08T08:52:32;19.50;43.70
41644;DHT22;44236;48.098;11.582;2023-01-08T08:54:58;19.50;43.80
41644;DHT22;44236;48.098;11.582;2023-01-08T08:57:24;19.50;44.10
41644;DHT22;44236;48.098;11.582;2023-01-08T08:59:50;19.50;44.00
41644;DHT22;44236;48.098;11.582;2023-01-08T09:02:16;19.50;44.00
41644;DHT22;44236;48.098;11.582;2023-01-08T09:04:41;19.50;44.20
41644;DHT22;44236;48.098;11.582;2023-01-08T09:07:07;19.50;44.30
41644;DHT22;44236;48.098;11.582;2023-01-08T09:09:33;19.50;44.20
41644;DHT22;44236;48.098;11.582;2023-01-08T09:11:58;19.50;44.00
41644;DHT22;44236;48.098;11.582;2023-01-08T09:14:24;19.60;44.40
41644;DHT22;44236;48.098;11.582;2023-01-08T09:16:50;19.60;44.00
41644;DHT22;44236;48.098;11.582;2023-01-08T09:19:15;19.60;44.10
41644;DHT22;44236;48.098;11.582;2023-01-08T09:21:41;19.60;44.30
41644;DHT22;44236;48.098;11.582;2023-01-08T09:24:07;19.60;44.10
41644;DHT22;44236;48.098;11.582;2023-01-08T09:26:33;19.60;44.30
41644;DHT22;44236;48.098;11.582;2023-01-08T09:28:59;19.20;41.30
41644;DHT22;44236;48.098;11.582;2023-01-08T09:31:25;18.50;37.70
41644;DHT22;44236;48.098;11.582;2023-01-08T09:33:51;17.80;37.10
41644;DHT22;44236;48.098;11.582;2023-01-08T09:36:17;18.00;39.60
41644;DHT22;44236;48.098;11.582;2023-01-08T09:38:43;18.20;41.00
41644;DHT22;44236;48.098;11.582;2023-01-08T09:41:15;18.40;40.90
41644;DHT22;44236;48.098;11.582;2023-01-08T09:43:44;18.60;41.10
41644;DHT22;44236;48.098;11.582;2023-01-08T09:46:11;18.70;41.70
41644;DHT22;44236;48.098;11.582;2023-01-08T09:48:39;18.80;41.50
41644;DHT22;44236;48.098;11.582;2023-01-08T09:51:11;18.90;41.90
41644;DHT22;44236;48.098;11.582;2023-01-08T09:53:38;19.00;41.80
41644;DHT22;44236;48.098;11.582;2023-01-08T09:56:17;19.10;41.80
41644;DHT22;44236;48.098;11.582;2023-01-08T09:58:48;19.10;41.80
41644;DHT22;44236;48.098;11.582;2023-01-08T10:01:21;19.10;41.90
41644;DHT22;44236;48.098;11.582;2023-01-08T10:03:56;19.10;42.40
41644;DHT22;44236;48.098;11.582;2023-01-08T10:06:24;19.20;42.10
41644;DHT22;44236;48.098;11.582;2023-01-08T10:08:50;19.20;42.30
41644;DHT22;44236;48.098;11.582;2023-01-08T10:11:17;19.20;42.40
41644;DHT22;44236;48.098;11.582;2023-01-08T10:13:49;19.30;42.90
41644;DHT22;44236;48.098;11.582;2023-01-08T10:16:32;19.20;42.80
41644;DHT22;44236;48.098;11.582;2023-01-08T10:19:02;19.30;43.00
41644;DHT22;44236;48.098;11.582;2023-01-08T10:21:32;19.30;43.00
41644;DHT22;44236;48.098;11.582;2023-01-08T10:24:00;19.40;43.00
41644;DHT22;44236;48.098;11.582;2023-01-08T10:26:31;19.30;42.80
41644;DHT22;44236;48.098;11.582;2023-01-08T10:29:10;19.30;42.80
41644;DHT22;44236;48.098;11.582;2023-01-08T10:31:55;19.40;43.00
41644;DHT22;44236;48.098;11.582;2023-01-08T10:36:59;19.40;42.70
41644;DHT22;44236;48.098;11.582;2023-01-08T10:39:26;19.40;43.00
41644;DHT22;44236;48.098;11.582;2023-01-08T10:41:56;19.40;43.00
41644;DHT22;44236;48.098;11.582;2023-01-08T10:44:27;19.50;43.20
41644;DHT22;44236;48.098;11.582;2023-01-08T10:46:56;19.50;43.00
41644;DHT22;44236;48.098;11.582;2023-01-08T10:51:50;19.50;43.00
41644;DHT22;44236;48.098;11.582;2023-01-08T10:54:33;19.50;43.10
41644;DHT22;44236;48.098;11.582;2023-01-08T10:56:59;19.50;43.00
41644;DHT22;44236;48.098;11.582;2023-01-08T10:59:25;19.50;43.10
41644;DHT22;44236;48.098;11.582;2023-01-08T11:01:56;19.50;43.10
41644;DHT22;44236;48.098;11.582;2023-01-08T11:04:29;19.40;43.10
41644;DHT22;44236;48.098;11.582;2023-01-08T11:07:03;19.40;42.90
41644;DHT22;44236;48.098;11.582;2023-01-08T11:09:32;19.40;42.80
41644;DHT22;44236;48.098;11.582;2023-01-08T11:11:58;19.40;42.80
41644;DHT22;44236;48.098;11.582;2023-01-08T11:14:33;19.40;42.50
41644;DHT22;44236;48.098;11.582;2023-01-08T11:17:01;19.30;42.20
41644;DHT22;44236;48.098;11.582;2023-01-08T11:19:33;19.40;42.20
41644;DHT22;44236;48.098;11.582;2023-01-08T11:24:51;19.30;41.90
41644;DHT22;44236;48.098;11.582;2023-01-08T11:30:06;19.30;41.80
41644;DHT22;44236;48.098;11.582;2023-01-08T11:35:30;19.30;42.00
41644;DHT22;44236;48.098;11.582;2023-01-08T11:37:59;19.40;42.20
41644;DHT22;44236;48.098;11.582;2023-01-08T11:43:42;19.30;41.90
41644;DHT22;44236;48.098;11.582;2023-01-08T11:46:15;19.30;41.90
41644;DHT22;44236;48.098;11.582;2023-01-08T11:49:07;19.40;42.00
41644;DHT22;44236;48.098;11.582;2023-01-08T11:51:51;19.30;42.10
41644;DHT22;44236;48.098;11.582;2023-01-08T12:02:58;19.40;42.70
41644;DHT22;44236;48.098;11.582;2023-01-08T12:05:45;19.40;42.60
41644;DHT22;44236;48.098;11.582;2023-01-08T12:24:58;19.40;43.90
41644;DHT22;44236;48.098;11.582;2023-01-08T12:27:52;19.30;44.00
41644;DHT22;44236;48.098;11.582;2023-01-08T12:35:51;19.40;44.90
41644;DHT22;44236;48.098;11.582;2023-01-08T12:38:25;19.40;45.30
41644;DHT22;44236;48.098;11.582;2023-01-08T12:41:12;19.40;45.40
41644;DHT22;44236;48.098;11.582;2023-01-08T12:46:16;19.40;45.50
41644;DHT22;44236;48.098;11.582;2023-01-08T12:48:44;19.40;45.40
41644;DHT22;44236;48.098;11.582;2023-01-08T13:02:33;19.40;45.70
41644;DHT22;44236;48.098;11.582;2023-01-08T13:05:12;19.40;45.60
41644;DHT22;44236;48.098;11.582;2023-01-08T13:07:46;19.40;45.50
41644;DHT22;44236;48.098;11.582;2023-01-08T13:12:51;19.40;45.40
41644;DHT22;44236;48.098;11.582;2023-01-08T13:15:22;19.40;45.50
41644;DHT22;44236;48.098;11.582;2023-01-08T13:17:51;19.40;45.60
41644;DHT22;44236;48.098;11.582;2023-01-08T13:20:21;19.40;45.50
41644;DHT22;44236;48.098;11.582;2023-01-08T13:23:00;19.40;45.30
41644;DHT22;44236;48.098;11.582;2023-01-08T13:25:37;19.40;45.60
41644;DHT22;44236;48.098;11.582;2023-01-08T13:28:29;19.40;45.70
41644;DHT22;44236;48.098;11.582;2023-01-08T13:31:26;19.50;45.70
41644;DHT22;44236;48.098;11.582;2023-01-08T13:33:53;19.50;45.80
41644;DHT22;44236;48.098;11.582;2023-01-08T13:36:26;19.50;45.80
41644;DHT22;44236;48.098;11.582;2023-01-08T13:44:29;19.50;45.50
41644;DHT22;44236;48.098;11.582;2023-01-08T13:47:00;19.40;45.50
41644;DHT22;44236;48.098;11.582;2023-01-08T13:49:47;19.40;45.70
41644;DHT22;44236;48.098;11.582;2023-01-08T13:52:30;19.50;45.50
41644;DHT22;44236;48.098;11.582;2023-01-08T13:54:57;19.50;45.50
41644;DHT22;44236;48.098;11.582;2023-01-08T13:57:23;19.50;45.50
41644;DHT22;44236;48.098;11.582;2023-01-08T13:59:52;19.40;45.40
41644;DHT22;44236;48.098;11.582;2023-01-08T14:02:30;19.40;45.90
41644;DHT22;44236;48.098;11.582;2023-01-08T14:04:58;19.40;45.30
41644;DHT22;44236;48.098;11.582;2023-01-08T14:07:25;19.40;45.40
41644;DHT22;44236;48.098;11.582;2023-01-08T14:09:51;19.40;45.30
41644;DHT22;44236;48.098;11.582;2023-01-08T14:12:22;19.40;45.30
41644;DHT22;44236;48.098;11.582;2023-01-08T14:14:51;19.40;45.20
41644;DHT22;44236;48.098;11.582;2023-01-08T14:17:20;19.40;45.30
41644;DHT22;44236;48.098;11.582;2023-01-08T14:19:46;19.40;45.70
41644;DHT22;44236;48.098;11.582;2023-01-08T14:22:32;19.40;45.50
41644;DHT22;44236;48.098;11.582;2023-01-08T14:25:03;19.40;45.50
41644;DHT22;44236;48.098;11.582;2023-01-08T14:27:30;19.40;45.40
41644;DHT22;44236;48.098;11.582;2023-01-08T14:29:56;19.40;45.30
41644;DHT22;44236;48.098;11.582;2023-01-08T14:32:25;19.40;45.30
41644;DHT22;44236;48.098;11.582;2023-01-08T14:34:53;19.40;45.20
41644;DHT22;44236;48.098;11.582;2023-01-08T14:37:20;19.40;45.20
41644;DHT22;44236;48.098;11.582;2023-01-08T14:39:46;19.40;45.10
41644;DHT22;44236;48.098;11.582;2023-01-08T14:42:35;19.40;45.10
41644;DHT22;44236;48.098;11.582;2023-01-08T14:45:30;19.40;45.10
41644;DHT22;44236;48.098;11.582;2023-01-08T14:48:13;19.40;45.00
41644;DHT22;44236;48.098;11.582;2023-01-08T14:50:42;19.40;45.00
41644;DHT22;44236;48.098;11.582;2023-01-08T14:53:18;19.40;44.90
41644;DHT22;44236;48.098;11.582;2023-01-08T14:55:47;19.40;44.90
41644;DHT22;44236;48.098;11.582;2023-01-08T14:58:17;19.40;44.80
41644;DHT22;44236;48.098;11.582;2023-01-08T15:03:46;19.40;44.70
41644;DHT22;44236;48.098;11.582;2023-01-08T15:06:23;19.40;44.70
41644;DHT22;44236;48.098;11.582;2023-01-08T15:08:48;19.40;44.80
41644;DHT22;44236;48.098;11.582;2023-01-08T15:13:43;19.40;44.80
41644;DHT22;44236;48.098;11.582;2023-01-08T15:16:27;19.40;44.70
41644;DHT22;44236;48.098;11.582;2023-01-08T15:19:16;19.40;44.70
41644;DHT22;44236;48.098;11.582;2023-01-08T15:21:57;19.40;44.60
41644;DHT22;44236;48.098;11.582;2023-01-08T15:24:27;19.40;44.60
41644;DHT22;44236;48.098;11.582;2023-01-08T15:26:54;19.50;44.60
41644;DHT22;44236;48.098;11.582;2023-01-08T15:29:28;19.50;44.50
41644;DHT22;44236;48.098;11.582;2023-01-08T15:32:08;19.40;44.50
41644;DHT22;44236;48.098;11.582;2023-01-08T15:34:34;19.40;44.50
41644;DHT22;44236;48.098;11.582;2023-01-08T15:36:59;19.40;44.40
41644;DHT22;44236;48.098;11.582;2023-01-08T15:39:25;19.40;44.60
41644;DHT22;44236;48.098;11.582;2023-01-08T15:41:51;19.40;44.50
41644;DHT22;44236;48.098;11.582;2023-01-08T15:44:35;19.40;44.50
41644;DHT22;44236;48.098;11.582;2023-01-08T15:47:00;19.40;44.50
41644;DHT22;44236;48.098;11.582;2023-01-08T15:49:26;19.40;44.50
41644;DHT22;44236;48.098;11.582;2023-01-08T15:51:52;19.40;44.50
41644;DHT22;44236;48.098;11.582;2023-01-08T15:54:20;19.40;44.50
41644;DHT22;44236;48.098;11.582;2023-01-08T15:56:47;19.40;44.50
41644;DHT22;44236;48.098;11.582;2023-01-08T15:59:13;19.40;44.60
41644;DHT22;44236;48.098;11.582;2023-01-08T16:01:39;19.40;44.60
41644;DHT22;44236;48.098;11.582;2023-01-08T16:04:05;19.40;44.50
41644;DHT22;44236;48.098;11.582;2023-01-08T16:06:30;19.40;44.60
41644;DHT22;44236;48.098;11.582;2023-01-08T16:08:56;19.40;44.60
41644;DHT22;44236;48.098;11.582;2023-01-08T16:11:25;19.40;44.60
41644;DHT22;44236;48.098;11.582;2023-01-08T16:13:50;19.40;44.60
41644;DHT22;44236;48.098;11.582;2023-01-08T16:16:16;19.40;44.60
41644;DHT22;44236;48.098;11.582;2023-01-08T16:18:42;19.40;44.50
41644;DHT22;44236;48.098;11.582;2023-01-08T16:21:09;19.40;44.60
41644;DHT22;44236;48.098;11.582;2023-01-08T16:23:36;19.40;44.50
41644;DHT22;44236;48.098;11.582;2023-01-08T16:28:31;19.40;44.50
41644;DHT22;44236;48.098;11.582;2023-01-08T16:30:56;19.40;44.50
41644;DHT22;44236;48.098;11.582;2023-01-08T16:33:22;19.40;44.50
41644;DHT22;44236;48.098;11.582;2023-01-08T16:35:58;19.40;44.50
41644;DHT22;44236;48.098;11.582;2023-01-08T16:38:24;19.40;44.40
41644;DHT22;44236;48.098;11.582;2023-01-08T16:40:54;19.40;44.40
41644;DHT22;44236;48.098;11.582;2023-01-08T16:43:28;19.40;44.40
41644;DHT22;44236;48.098;11.582;2023-01-08T16:45:54;19.40;44.30
41644;DHT22;44236;48.098;11.582;2023-01-08T16:48:20;19.40;44.30
41644;DHT22;44236;48.098;11.582;2023-01-08T16:50:47;19.50;44.40
41644;DHT22;44236;48.098;11.582;2023-01-08T16:53:13;19.50;44.40
41644;DHT22;44236;48.098;11.582;2023-01-08T16:55:39;19.50;44.40
41644;DHT22;44236;48.098;11.582;2023-01-08T16:58:06;19.60;44.40
41644;DHT22;44236;48.098;11.582;2023-01-08T17:00:36;19.60;44.50
41644;DHT22;44236;48.098;11.582;2023-01-08T17:03:03;19.60;44.60